Time;durP1;ratioP1;P1;durP2;ratioP2;P2;SDS_P1;SDS_P2;PMS_P1;PMS_P2;Temp;Humidity;BMP_temperature;BMP_pressure;BME280_temperature;BME280_humidity;BME280_pressure;Samples;Min_cycle;Max_cycle;Signal;HPM_P1;HPM_P2
2021/08/11 00:05:51;;;;;;;;;;;21.00;62.80;;;;;;20994584;28;19989;-77
2021/08/11 00:15:52;;;;;;;;;;;20.90;62.60;;;;;;20994711;28;19912;-77
2021/08/11 00:25:54;;;;;;;;;;;20.90;62.50;;;;;;20976990;28;20320;-77
2021/08/11 00:35:54;;;;;;;;;;;20.90;62.40;;;;;;20992375;28;20328;-77
2021/08/11 00:45:55;;;;;;;;;;;21.00;62.40;;;;;;20976323;28;19912;-77
2021/08/11 00:55:57;;;;;;;;;;;20.80;62.10;;;;;;20991486;28;20274;-77
2021/08/11 01:06:02;;;;;;;;;;;20.80;62.10;;;;;;20974126;28;19919;-77
2021/08/11 01:16:04;;;;;;;;;;;20.80;62.10;;;;;;20973372;28;20274;-76
2021/08/11 01:26:14;;;;;;;;;;;20.80;61.90;;;;;;20972852;28;19916;-77
2021/08/11 01:36:29;;;;;;;;;;;20.80;61.80;;;;;;20978080;28;19924;-76
2021/08/11 01:46:30;;;;;;;;;;;20.80;61.70;;;;;;21063315;28;19916;-77
2021/08/11 01:56:32;;;;;;;;;;;20.70;61.60;;;;;;21054968;28;19916;-77
2021/08/11 02:06:33;;;;;;;;;;;20.70;61.50;;;;;;21055209;28;19911;-76
2021/08/11 02:16:39;;;;;;;;;;;20.70;61.40;;;;;;21038342;28;19938;-77
2021/08/11 02:26:43;;;;;;;;;;;20.70;61.40;;;;;;21064153;28;19923;-77
2021/08/11 02:36:47;;;;;;;;;;;20.70;61.40;;;;;;21086177;28;20017;-77
2021/08/11 02:46:49;;;;;;;;;;;20.70;61.50;;;;;;21068570;28;20411;-76
2021/08/11 02:56:49;;;;;;;;;;;20.70;61.70;;;;;;21084695;28;19920;-76
2021/08/11 03:06:50;;;;;;;;;;;20.60;61.80;;;;;;21050317;28;20009;-77
2021/08/11 03:16:50;;;;;;;;;;;20.60;61.90;;;;;;21082963;28;19912;-77
2021/08/11 03:26:51;;;;;;;;;;;20.60;62.00;;;;;;21082317;28;19912;-77
2021/08/11 03:36:52;;;;;;;;;;;20.60;62.10;;;;;;21063024;28;19912;-77
2021/08/11 03:46:52;;;;;;;;;;;20.60;62.20;;;;;;21053184;28;19969;-77
2021/08/11 03:56:53;;;;;;;;;;;20.60;62.30;;;;;;21063099;28;19923;-77
2021/08/11 04:06:54;;;;;;;;;;;20.70;62.40;;;;;;21062411;28;19919;-76
2021/08/11 04:16:54;;;;;;;;;;;20.50;62.40;;;;;;21078274;28;19963;-74
2021/08/11 04:26:55;;;;;;;;;;;20.60;62.50;;;;;;21078150;28;19920;-75
2021/08/11 04:36:56;;;;;;;;;;;20.50;62.50;;;;;;21076410;28;20273;-76
2021/08/11 04:46:58;;;;;;;;;;;20.50;62.70;;;;;;21059873;28;19916;-74
2021/08/11 04:56:58;;;;;;;;;;;20.50;62.60;;;;;;21058445;28;20472;-76
2021/08/11 05:06:59;;;;;;;;;;;20.50;62.60;;;;;;21056327;28;19908;-76
2021/08/11 05:17:00;;;;;;;;;;;20.50;63.40;;;;;;21073505;28;19915;-77
2021/08/11 05:27:00;;;;;;;;;;;20.50;62.80;;;;;;21074249;28;20243;-76
2021/08/11 05:37:01;;;;;;;;;;;20.50;62.80;;;;;;21073859;28;19945;-76
2021/08/11 05:47:03;;;;;;;;;;;20.50;63.00;;;;;;21058157;28;19912;-76
2021/08/11 05:57:04;;;;;;;;;;;20.50;63.10;;;;;;21053563;28;19927;-76
2021/08/11 06:07:04;;;;;;;;;;;20.50;63.10;;;;;;21070798;28;19911;-76
2021/08/11 06:17:05;;;;;;;;;;;20.40;63.20;;;;;;21070464;28;20377;-76
2021/08/11 06:27:05;;;;;;;;;;;20.40;63.30;;;;;;21061163;28;19916;-78
2021/08/11 06:37:06;;;;;;;;;;;20.40;63.30;;;;;;21036562;28;20531;-79
2021/08/11 06:47:06;;;;;;;;;;;20.40;63.40;;;;;;21052960;28;20038;-79
2021/08/11 06:57:07;;;;;;;;;;;20.40;63.40;;;;;;21035595;28;20251;-78
2021/08/11 07:07:08;;;;;;;;;;;20.40;63.50;;;;;;21053189;28;19909;-77
2021/08/11 07:17:08;;;;;;;;;;;20.50;63.60;;;;;;20981764;28;20010;-79
2021/08/11 07:27:09;;;;;;;;;;;20.40;63.60;;;;;;20982346;28;19916;-80
2021/08/11 07:37:09;;;;;;;;;;;20.50;63.80;;;;;;20998047;28;19916;-82
2021/08/11 07:47:10;;;;;;;;;;;20.50;63.90;;;;;;20972179;28;20337;-78
2021/08/11 07:57:10;;;;;;;;;;;20.50;64.10;;;;;;21037519;28;19920;-80
2021/08/11 08:07:11;;;;;;;;;;;20.50;64.40;;;;;;21063603;28;20374;-79
2021/08/11 08:17:11;;;;;;;;;;;20.50;64.60;;;;;;21045965;28;19937;-78
2021/08/11 08:27:12;;;;;;;;;;;20.60;64.80;;;;;;21061066;28;19959;-78
2021/08/11 08:37:12;;;;;;;;;;;20.40;65.00;;;;;;21060509;28;19912;-78
2021/08/11 08:47:14;;;;;;;;;;;20.70;65.50;;;;;;21060159;28;19958;-74
2021/08/11 08:57:15;;;;;;;;;;;20.60;65.40;;;;;;21058867;28;20281;-75
2021/08/11 09:07:16;;;;;;;;;;;20.60;65.40;;;;;;21057935;28;20274;-78
2021/08/11 09:17:34;;;;;;;;;;;20.60;65.40;;;;;;21040546;28;19919;-75
2021/08/11 09:27:38;;;;;;;;;;;20.70;65.60;;;;;;21072892;28;19919;-75
2021/08/11 09:37:39;;;;;;;;;;;20.70;65.50;;;;;;21054901;28;19919;-74
2021/08/11 09:47:52;;;;;;;;;;;20.70;65.40;;;;;;21056688;28;19933;-77
2021/08/11 09:57:52;;;;;;;;;;;20.70;65.30;;;;;;21370885;22;19943;-79
2021/08/11 10:07:53;;;;;;;;;;;20.80;65.40;;;;;;20971994;28;19913;-84
2021/08/11 10:17:54;;;;;;;;;;;20.80;65.30;;;;;;20972763;28;19920;-81
2021/08/11 10:27:55;;;;;;;;;;;20.80;65.20;;;;;;20988600;28;19999;-82
2021/08/11 10:37:56;;;;;;;;;;;20.90;65.20;;;;;;20971072;28;20328;-81
2021/08/11 10:47:58;;;;;;;;;;;20.90;65.10;;;;;;20966019;28;19920;-79
2021/08/11 10:57:58;;;;;;;;;;;20.70;64.80;;;;;;20985697;28;20252;-80
2021/08/11 11:08:05;;;;;;;;;;;20.90;65.00;;;;;;20974872;28;19912;-80
2021/08/11 11:18:18;;;;;;;;;;;20.90;65.10;;;;;;20918572;28;20386;-81
2021/08/11 11:28:18;;;;;;;;;;;20.90;64.90;;;;;;20965297;28;19912;-79
2021/08/11 11:38:19;;;;;;;;;;;21.00;64.70;;;;;;20997743;28;19943;-80
2021/08/11 11:48:20;;;;;;;;;;;21.00;64.40;;;;;;20982040;28;20594;-79
2021/08/11 11:58:21;;;;;;;;;;;21.00;64.10;;;;;;20962742;28;19961;-81
2021/08/11 12:08:22;;;;;;;;;;;21.00;64.00;;;;;;20984067;28;20239;-81
2021/08/11 12:18:23;;;;;;;;;;;21.10;63.90;;;;;;20997821;28;19916;-74
2021/08/11 12:28:24;;;;;;;;;;;21.10;63.80;;;;;;20977814;28;19919;-75
2021/08/11 12:38:28;;;;;;;;;;;21.10;63.60;;;;;;20993745;28;19916;-74
2021/08/11 12:48:29;;;;;;;;;;;21.10;63.60;;;;;;20994449;28;20031;-76
2021/08/11 12:58:49;;;;;;;;;;;21.20;63.60;;;;;;20992981;28;19964;-75
2021/08/11 13:08:51;;;;;;;;;;;21.20;63.60;;;;;;20970896;28;19959;-79
2021/08/11 13:18:51;;;;;;;;;;;21.30;63.30;;;;;;20974424;28;19920;-77
2021/08/11 13:28:52;;;;;;;;;;;21.30;63.10;;;;;;20988585;28;19908;-76
2021/08/11 13:38:52;;;;;;;;;;;21.30;62.90;;;;;;20986783;28;19947;-79
2021/08/11 13:48:53;;;;;;;;;;;21.40;62.70;;;;;;20986713;28;19908;-73
2021/08/11 13:58:53;;;;;;;;;;;21.40;62.60;;;;;;20956099;28;20495;-74
2021/08/11 14:08:55;;;;;;;;;;;21.50;62.30;;;;;;20928904;28;19908;-74
2021/08/11 14:18:56;;;;;;;;;;;21.60;62.00;;;;;;20975094;28;20358;-72
2021/08/11 14:28:56;;;;;;;;;;;21.70;61.70;;;;;;20986446;28;19915;-72
2021/08/11 14:38:57;;;;;;;;;;;21.80;61.40;;;;;;21002716;28;20374;-72
2021/08/11 14:48:57;;;;;;;;;;;21.90;61.10;;;;;;21002017;28;19909;-72
2021/08/11 14:58:58;;;;;;;;;;;22.00;60.80;;;;;;20929556;28;20348;-74
2021/08/11 15:08:58;;;;;;;;;;;22.00;60.50;;;;;;20887198;28;19956;-75
2021/08/11 15:18:59;;;;;;;;;;;22.10;60.20;;;;;;20900130;28;20399;-75
2021/08/11 15:28:59;;;;;;;;;;;22.30;60.10;;;;;;20900833;28;19967;-74
2021/08/11 15:39:00;;;;;;;;;;;22.30;60.00;;;;;;20917537;28;20366;-80
2021/08/11 15:49:01;;;;;;;;;;;22.40;59.90;;;;;;20882526;28;20021;-73
2021/08/11 15:59:03;;;;;;;;;;;22.50;59.70;;;;;;20880994;28;20390;-76
2021/08/11 16:09:04;;;;;;;;;;;22.50;59.50;;;;;;20879298;28;20403;-77
2021/08/11 16:19:04;;;;;;;;;;;22.60;59.40;;;;;;20902824;28;19916;-76
2021/08/11 16:29:05;;;;;;;;;;;22.60;59.20;;;;;;20977536;28;20293;-76
2021/08/11 16:39:05;;;;;;;;;;;22.70;59.10;;;;;;20959611;28;19916;-76
2021/08/11 16:49:07;;;;;;;;;;;22.70;59.10;;;;;;20959006;28;19915;-76
2021/08/11 16:59:08;;;;;;;;;;;22.60;58.90;;;;;;20958462;28;20388;-77
2021/08/11 17:09:09;;;;;;;;;;;22.70;58.90;;;;;;20989233;28;19908;-76
2021/08/11 17:19:09;;;;;;;;;;;22.70;58.90;;;;;;20935453;28;19928;-76
2021/08/11 17:29:10;;;;;;;;;;;22.60;58.80;;;;;;20946445;28;19912;-74
2021/08/11 17:39:11;;;;;;;;;;;22.60;58.90;;;;;;20945070;28;20380;-76
2021/08/11 17:49:11;;;;;;;;;;;22.50;59.00;;;;;;20988360;28;19912;-77
2021/08/11 17:59:12;;;;;;;;;;;22.50;59.30;;;;;;20970334;28;20011;-77
2021/08/11 18:09:12;;;;;;;;;;;22.40;59.50;;;;;;20971897;28;19912;-76
2021/08/11 18:19:13;;;;;;;;;;;22.40;59.70;;;;;;20969451;28;19920;-75
2021/08/11 18:29:14;;;;;;;;;;;22.30;59.70;;;;;;20986926;28;20274;-77
2021/08/11 18:39:16;;;;;;;;;;;22.20;59.90;;;;;;20953140;28;19917;-76
2021/08/11 18:49:16;;;;;;;;;;;22.10;60.10;;;;;;20969304;28;19908;-76
2021/08/11 18:59:18;;;;;;;;;;;22.00;60.40;;;;;;20969399;28;20381;-76
2021/08/11 19:09:19;;;;;;;;;;;22.00;60.80;;;;;;20963402;28;19922;-76
2021/08/11 19:19:19;;;;;;;;;;;21.90;61.20;;;;;;20983164;28;19921;-78
2021/08/11 19:29:20;;;;;;;;;;;21.90;61.30;;;;;;20941664;28;19928;-77
2021/08/11 19:39:20;;;;;;;;;;;21.80;61.50;;;;;;20882073;28;20436;-75
2021/08/11 19:49:21;;;;;;;;;;;21.70;61.50;;;;;;20914825;28;19915;-75
2021/08/11 19:59:22;;;;;;;;;;;21.70;61.60;;;;;;20891329;28;20283;-74
2021/08/11 20:09:22;;;;;;;;;;;21.60;61.40;;;;;;20894965;28;19909;-74
2021/08/11 20:19:23;;;;;;;;;;;21.60;61.40;;;;;;20909884;28;20282;-73
2021/08/11 20:29:23;;;;;;;;;;;21.50;61.30;;;;;;20895416;28;19959;-74
2021/08/11 20:39:24;;;;;;;;;;;21.50;61.30;;;;;;20896101;28;20367;-78
2021/08/11 20:49:27;;;;;;;;;;;21.50;61.30;;;;;;20912946;28;19913;-75
2021/08/11 20:59:27;;;;;;;;;;;21.50;61.30;;;;;;20911668;28;20283;-74
2021/08/11 21:09:28;;;;;;;;;;;21.50;61.30;;;;;;20910517;28;19916;-74
2021/08/11 21:19:28;;;;;;;;;;;21.50;61.40;;;;;;20893004;28;20256;-74
2021/08/11 21:29:29;;;;;;;;;;;21.40;61.40;;;;;;20893150;28;19909;-75
2021/08/11 21:39:29;;;;;;;;;;;21.40;61.40;;;;;;20907378;28;19927;-74
2021/08/11 21:49:30;;;;;;;;;;;21.40;61.40;;;;;;20891415;28;19912;-76
2021/08/11 21:59:30;;;;;;;;;;;21.40;61.40;;;;;;20889433;28;20317;-76
2021/08/11 22:09:31;;;;;;;;;;;21.30;61.30;;;;;;20889344;28;19905;-74
2021/08/11 22:19:31;;;;;;;;;;;21.30;61.30;;;;;;20888849;28;20279;-75
2021/08/11 22:29:32;;;;;;;;;;;21.30;61.20;;;;;;20888477;28;19909;-75
2021/08/11 22:39:33;;;;;;;;;;;21.30;61.20;;;;;;20892730;28;19916;-75
2021/08/11 22:49:33;;;;;;;;;;;21.30;61.20;;;;;;20903726;28;19908;-75
2021/08/11 22:59:34;;;;;;;;;;;21.30;61.20;;;;;;20919982;28;19965;-77
2021/08/11 23:09:34;;;;;;;;;;;21.30;61.10;;;;;;20902556;28;19946;-76
2021/08/11 23:19:35;;;;;;;;;;;21.20;61.00;;;;;;20901650;28;20321;-74
2021/08/11 23:29:35;;;;;;;;;;;21.20;61.00;;;;;;20917409;28;19940;-75
2021/08/11 23:39:36;;;;;;;;;;;21.20;60.90;;;;;;20900114;28;19916;-75
2021/08/11 23:49:36;;;;;;;;;;;21.20;60.90;;;;;;20915114;28;19909;-74
2021/08/11 23:59:37;;;;;;;;;;;21.10;60.70;;;;;;20898393;28;19983;-74
